createdAt,value
2023-05-01T00:00:54.149Z,9.40
2023-05-01T00:03:22.195Z,9.40
2023-05-01T00:05:50.242Z,9.40
2023-05-01T00:08:18.194Z,9.40
2023-05-01T00:10:46.610Z,9.40
2023-05-01T00:13:17.896Z,9.40
2023-05-01T00:15:45.875Z,9.40
2023-05-01T00:18:13.879Z,9.40
2023-05-01T00:20:42.004Z,9.30
2023-05-01T00:23:09.937Z,9.30
2023-05-01T00:25:38.392Z,9.30
2023-05-01T00:28:08.125Z,9.20
2023-05-01T00:30:37.681Z,9.20
2023-05-01T00:33:05.840Z,9.20
2023-05-01T00:35:36.061Z,9.20
2023-05-01T00:38:04.069Z,9.20
2023-05-01T00:40:32.304Z,9.20
2023-05-01T00:43:00.264Z,9.20
2023-05-01T00:45:31.127Z,9.20
2023-05-01T00:48:00.583Z,9.10
2023-05-01T00:50:28.691Z,9.10
2023-05-01T00:52:57.114Z,9.10
2023-05-01T00:55:25.192Z,9.40
2023-05-01T00:57:54.161Z,9.10
2023-05-01T01:00:24.551Z,9.10
2023-05-01T01:02:52.615Z,9.10
2023-05-01T01:05:22.825Z,9.00
2023-05-01T01:07:55.800Z,9.00
2023-05-01T01:10:31.452Z,9.10
2023-05-01T01:13:04.420Z,8.90
2023-05-01T01:15:36.423Z,8.90
2023-05-01T01:18:09.150Z,8.90
2023-05-01T01:20:45.315Z,8.80
2023-05-01T01:23:24.265Z,8.80
2023-05-01T01:26:04.513Z,8.80
2023-05-01T01:28:47.012Z,8.80
2023-05-01T01:31:18.734Z,8.70
2023-05-01T01:34:01.572Z,8.70
2023-05-01T01:36:34.804Z,8.70
2023-05-01T01:39:07.742Z,8.70
2023-05-01T01:41:36.538Z,8.60
2023-05-01T01:44:05.906Z,8.60
2023-05-01T01:46:36.406Z,8.60
2023-05-01T01:49:06.965Z,8.50
2023-05-01T01:51:36.802Z,8.50
2023-05-01T01:54:06.054Z,8.50
2023-05-01T01:56:34.729Z,8.50
2023-05-01T01:59:03.765Z,8.40
2023-05-01T02:01:32.116Z,8.30
2023-05-01T02:04:01.671Z,8.40
2023-05-01T02:06:32.454Z,8.40
2023-05-01T02:09:02.696Z,8.30
2023-05-01T02:11:32.513Z,8.30
2023-05-01T02:14:02.132Z,8.30
2023-05-01T02:16:31.043Z,8.30
2023-05-01T02:18:59.270Z,8.30
2023-05-01T02:21:34.403Z,8.30
2023-05-01T02:24:06.467Z,8.30
2023-05-01T02:26:39.812Z,8.20
2023-05-01T02:29:07.834Z,8.20
2023-05-01T02:31:35.836Z,8.20
2023-05-01T02:34:03.823Z,8.20
2023-05-01T02:36:33.371Z,8.20
2023-05-01T02:39:07.482Z,8.20
2023-05-01T02:41:36.396Z,8.20
2023-05-01T02:44:05.779Z,8.20
2023-05-01T02:46:35.549Z,8.10
2023-05-01T02:49:04.261Z,8.10
2023-05-01T02:51:33.799Z,8.10
2023-05-01T02:54:03.238Z,8.10
2023-05-01T02:56:31.435Z,8.00
2023-05-01T02:58:59.390Z,8.10
2023-05-01T03:01:28.525Z,8.00
2023-05-01T03:03:56.769Z,8.00
2023-05-01T03:06:24.891Z,7.90
2023-05-01T03:08:54.233Z,7.90
2023-05-01T03:11:22.325Z,7.90
2023-05-01T03:13:50.456Z,7.90
2023-05-01T03:16:18.518Z,7.90
2023-05-01T03:18:48.538Z,7.90
2023-05-01T03:21:19.073Z,7.70
2023-05-01T03:23:47.046Z,7.80
2023-05-01T03:26:19.088Z,7.80
2023-05-01T03:28:49.617Z,7.80
2023-05-01T03:31:17.602Z,7.80
2023-05-01T03:33:48.637Z,7.70
2023-05-01T03:36:16.628Z,7.70
2023-05-01T03:38:47.426Z,7.70
2023-05-01T03:41:17.054Z,7.70
2023-05-01T03:43:45.039Z,7.70
2023-05-01T03:46:13.087Z,7.70
2023-05-01T03:48:41.072Z,7.70
2023-05-01T03:51:09.073Z,7.60
2023-05-01T03:53:37.319Z,7.60
2023-05-01T03:56:05.545Z,7.60
2023-05-01T03:58:35.014Z,7.50
2023-05-01T04:01:03.622Z,7.50
2023-05-01T04:03:31.682Z,7.50
2023-05-01T04:05:59.699Z,7.50
2023-05-01T04:08:27.819Z,7.50
2023-05-01T04:10:55.822Z,7.50
2023-05-01T04:13:23.765Z,7.50
2023-05-01T04:15:55.313Z,7.50
2023-05-01T04:18:23.303Z,7.50
2023-05-01T04:20:51.713Z,7.50
2023-05-01T04:23:20.612Z,7.40
2023-05-01T04:25:49.379Z,7.40
2023-05-01T04:28:17.713Z,7.40
2023-05-01T04:30:45.663Z,7.40
2023-05-01T04:33:14.969Z,7.40
2023-05-01T04:35:43.017Z,7.40
2023-05-01T04:38:11.008Z,7.40
2023-05-01T04:40:41.036Z,7.40
2023-05-01T04:43:08.997Z,7.40
2023-05-01T04:45:37.002Z,7.40
2023-05-01T04:48:05.095Z,7.50
2023-05-01T04:50:34.527Z,7.50
2023-05-01T04:53:02.503Z,7.50
2023-05-01T04:55:31.226Z,7.50
2023-05-01T04:57:59.339Z,7.50
2023-05-01T05:00:28.035Z,7.60
2023-05-01T05:02:56.267Z,7.60
2023-05-01T05:05:24.379Z,7.60
2023-05-01T05:07:53.721Z,7.60
2023-05-01T05:10:21.822Z,7.60
2023-05-01T05:12:49.840Z,7.60
2023-05-01T05:15:17.950Z,7.70
2023-05-01T05:17:48.671Z,7.70
2023-05-01T05:20:19.687Z,8.10
2023-05-01T05:22:47.646Z,7.80
2023-05-01T05:25:17.217Z,7.80
2023-05-01T05:27:45.208Z,7.90
2023-05-01T05:30:13.521Z,7.90
2023-05-01T05:32:41.549Z,7.80
2023-05-01T05:35:09.695Z,7.90
2023-05-01T05:37:37.670Z,8.00
2023-05-01T05:40:06.084Z,8.00
2023-05-01T05:42:35.422Z,8.00
2023-05-01T05:45:03.416Z,8.10
2023-05-01T05:47:31.926Z,8.10
2023-05-01T05:49:59.920Z,8.20
2023-05-01T05:52:27.901Z,8.20
2023-05-01T05:54:55.850Z,8.30
2023-05-01T05:57:24.083Z,8.40
2023-05-01T05:59:56.143Z,8.40
2023-05-01T06:02:27.128Z,8.40
2023-05-01T06:04:56.438Z,8.50
2023-05-01T06:07:25.649Z,8.50
2023-05-01T06:09:53.792Z,8.60
2023-05-01T06:12:21.855Z,8.60
2023-05-01T06:14:50.590Z,8.70
2023-05-01T06:17:19.931Z,8.80
2023-05-01T06:19:49.322Z,8.90
2023-05-01T06:22:21.962Z,9.00
2023-05-01T06:24:49.974Z,9.00
2023-05-01T06:27:17.927Z,9.10
2023-05-01T06:29:45.898Z,9.10
2023-05-01T06:32:14.001Z,9.20
2023-05-01T06:34:46.168Z,9.10
2023-05-01T06:37:14.162Z,9.20
2023-05-01T06:39:42.142Z,9.30
2023-05-01T06:42:12.219Z,9.30
2023-05-01T06:44:40.290Z,9.40
2023-05-01T06:47:08.269Z,9.50
2023-05-01T06:49:43.634Z,9.50
2023-05-01T06:52:11.641Z,9.60
2023-05-01T06:54:39.776Z,9.60
2023-05-01T06:57:09.342Z,9.80
2023-05-01T06:59:40.396Z,9.80
2023-05-01T07:02:10.993Z,10.00
2023-05-01T07:04:44.462Z,10.10
2023-05-01T07:07:12.534Z,10.20
2023-05-01T07:09:41.498Z,10.20
2023-05-01T07:12:09.683Z,10.40
2023-05-01T07:14:37.818Z,10.40
2023-05-01T07:17:06.773Z,10.50
2023-05-01T07:19:38.189Z,10.60
2023-05-01T07:22:07.494Z,10.70
2023-05-01T07:24:35.473Z,10.80
2023-05-01T07:27:03.420Z,10.80
2023-05-01T07:29:31.385Z,11.00
2023-05-01T07:32:02.241Z,11.10
2023-05-01T07:34:30.751Z,11.20
2023-05-01T07:37:00.611Z,11.30
2023-05-01T07:39:30.024Z,11.40
2023-05-01T07:41:58.226Z,11.50
2023-05-01T07:44:27.528Z,11.60
2023-05-01T07:46:55.498Z,11.70
2023-05-01T07:49:23.745Z,11.80
2023-05-01T07:51:51.694Z,11.90
2023-05-01T07:54:22.057Z,11.90
2023-05-01T07:56:51.500Z,12.10
2023-05-01T07:59:19.493Z,12.20
2023-05-01T08:01:51.294Z,12.20
2023-05-01T08:04:19.337Z,12.30
2023-05-01T08:06:54.409Z,12.40
2023-05-01T08:09:22.393Z,12.50
2023-05-01T08:11:54.411Z,12.60
2023-05-01T08:14:22.548Z,12.70
2023-05-01T08:16:54.308Z,12.80
2023-05-01T08:19:23.145Z,12.90
2023-05-01T08:21:52.421Z,13.00
2023-05-01T08:24:20.716Z,13.10
2023-05-01T08:26:50.397Z,13.10
2023-05-01T08:29:19.714Z,13.20
2023-05-01T08:31:47.990Z,13.20
2023-05-01T08:34:17.329Z,13.40
2023-05-01T08:36:45.384Z,13.40
2023-05-01T08:39:13.551Z,13.60
2023-05-01T08:41:41.605Z,13.70
2023-05-01T08:44:10.577Z,13.80
2023-05-01T08:46:48.412Z,13.80
2023-05-01T08:49:18.448Z,13.90
2023-05-01T08:51:46.973Z,14.00
2023-05-01T08:54:15.725Z,14.10
2023-05-01T08:56:44.492Z,14.20
2023-05-01T08:59:14.455Z,14.30
2023-05-01T09:01:44.881Z,14.40
2023-05-01T09:04:13.000Z,14.50
2023-05-01T09:06:41.168Z,14.50
2023-05-01T09:09:09.247Z,14.50
2023-05-01T09:11:39.153Z,14.60
2023-05-01T09:14:09.866Z,14.60
2023-05-01T09:16:40.719Z,14.80
2023-05-01T09:19:10.843Z,14.80
2023-05-01T09:21:39.821Z,14.90
2023-05-01T09:24:08.222Z,15.00
2023-05-01T09:26:39.285Z,14.90
2023-05-01T09:29:07.318Z,15.00
2023-05-01T09:31:44.570Z,15.00
2023-05-01T09:34:13.997Z,15.10
2023-05-01T09:36:49.966Z,15.20
2023-05-01T09:39:23.836Z,15.30
2023-05-01T09:41:52.436Z,15.40
2023-05-01T09:44:20.485Z,15.50
2023-05-01T09:49:46.689Z,15.60
2023-05-01T09:52:15.160Z,15.70
2023-05-01T09:54:43.236Z,15.80
2023-05-01T09:57:11.508Z,15.90
2023-05-01T09:59:39.552Z,16.00
2023-05-01T10:02:08.850Z,16.10
2023-05-01T10:04:36.906Z,16.20
2023-05-01T10:07:15.695Z,16.20
2023-05-01T10:09:43.746Z,16.10
2023-05-01T10:12:11.711Z,16.20
2023-05-01T10:14:50.877Z,16.40
2023-05-01T10:17:20.074Z,16.50
2023-05-01T10:19:51.447Z,16.60
2023-05-01T10:22:20.941Z,16.70
2023-05-01T10:24:48.865Z,16.80
2023-05-01T10:27:18.545Z,16.90
2023-05-01T10:29:47.910Z,17.00
2023-05-01T10:32:15.948Z,17.10
2023-05-01T10:34:48.225Z,17.20
2023-05-01T10:37:19.240Z,17.30
2023-05-01T10:39:48.801Z,17.40
2023-05-01T10:42:17.908Z,17.40
2023-05-01T10:44:48.034Z,17.50
2023-05-01T10:47:35.284Z,17.40
2023-05-01T10:50:07.153Z,17.50
2023-05-01T10:52:50.050Z,17.60
2023-05-01T10:55:35.474Z,17.70
2023-05-01T10:58:03.787Z,17.60
2023-05-01T11:00:32.416Z,17.70
2023-05-01T11:03:18.837Z,17.70
2023-05-01T11:06:05.718Z,17.80
2023-05-01T11:08:34.443Z,17.80
2023-05-01T11:11:23.211Z,17.70
2023-05-01T11:13:59.868Z,17.80
2023-05-01T11:16:41.921Z,17.80
2023-05-01T11:19:11.269Z,17.80
2023-05-01T11:21:39.618Z,18.00
2023-05-01T11:24:07.971Z,18.20
2023-05-01T11:26:38.601Z,18.30
2023-05-01T11:29:08.323Z,18.40
2023-05-01T11:31:36.349Z,18.40
2023-05-01T11:34:06.650Z,18.40
2023-05-01T11:36:48.248Z,18.70
2023-05-01T11:39:17.216Z,18.80
2023-05-01T11:41:45.553Z,18.80
2023-05-01T11:44:16.242Z,18.80
2023-05-01T11:46:44.213Z,18.80
2023-05-01T11:49:12.290Z,18.80
2023-05-01T11:51:40.303Z,18.70
2023-05-01T11:54:12.211Z,18.80
2023-05-01T11:56:42.262Z,19.10
2023-05-01T11:59:11.438Z,19.30
2023-05-01T12:01:46.036Z,19.60
2023-05-01T12:04:15.135Z,19.80
2023-05-01T12:06:45.461Z,19.80
2023-05-01T12:09:17.232Z,19.80
2023-05-01T12:11:46.198Z,20.00
2023-05-01T12:14:15.210Z,20.10
2023-05-01T12:16:44.893Z,20.20
2023-05-01T12:19:14.010Z,20.40
2023-05-01T12:21:42.044Z,20.40
2023-05-01T12:24:10.724Z,20.30
2023-05-01T12:26:38.739Z,20.30
2023-05-01T12:29:07.503Z,20.10
2023-05-01T12:31:36.334Z,20.10
2023-05-01T12:34:08.023Z,20.30
2023-05-01T12:36:36.713Z,20.20
2023-05-01T12:39:06.651Z,20.10
2023-05-01T12:41:36.819Z,20.00
2023-05-01T12:44:15.964Z,19.80
2023-05-01T12:46:44.226Z,19.90
2023-05-01T12:49:18.589Z,19.90
2023-05-01T12:51:49.951Z,19.90
2023-05-01T12:54:21.410Z,19.80
2023-05-01T12:56:49.659Z,19.70
2023-05-01T12:59:21.551Z,19.60
2023-05-01T13:01:49.646Z,19.60
2023-05-01T13:04:25.783Z,19.80
2023-05-01T13:06:57.202Z,19.60
2023-05-01T13:09:27.146Z,19.80
2023-05-01T13:11:58.980Z,19.90
2023-05-01T13:14:27.047Z,19.90
2023-05-01T13:16:55.987Z,19.90
2023-05-01T13:19:29.407Z,19.80
2023-05-01T13:21:57.967Z,19.80
2023-05-01T13:24:36.859Z,19.90
2023-05-01T13:27:05.774Z,19.70
2023-05-01T13:29:34.035Z,19.60
2023-05-01T13:32:02.395Z,19.60
2023-05-01T13:34:33.004Z,19.60
2023-05-01T13:37:03.579Z,19.60
2023-05-01T13:39:31.600Z,19.60
2023-05-01T13:41:59.705Z,19.60
2023-05-01T13:44:29.162Z,19.80
2023-05-01T13:46:57.174Z,19.90
2023-05-01T13:49:25.671Z,20.10
2023-05-01T13:51:55.557Z,20.10
2023-05-01T13:54:23.612Z,20.10
2023-05-01T13:56:54.151Z,20.30
2023-05-01T13:59:22.433Z,20.60
2023-05-01T14:01:51.049Z,20.90
2023-05-01T14:04:21.320Z,20.70
2023-05-01T14:06:56.751Z,20.90
2023-05-01T14:09:24.834Z,21.50
2023-05-01T14:11:52.890Z,21.90
2023-05-01T14:14:23.234Z,22.60
2023-05-01T14:16:53.152Z,24.40
2023-05-01T14:19:21.234Z,24.60
2023-05-01T14:21:49.236Z,24.60
2023-05-01T14:24:19.141Z,25.20
2023-05-01T14:26:48.494Z,25.00
2023-05-01T14:29:21.288Z,24.80
2023-05-01T14:31:49.351Z,24.50
2023-05-01T14:34:18.698Z,24.50
2023-05-01T14:36:46.746Z,24.60
2023-05-01T14:39:16.120Z,24.90
2023-05-01T14:41:45.517Z,25.20
2023-05-01T14:44:14.948Z,24.70
2023-05-01T14:46:46.332Z,25.20
2023-05-01T14:49:18.680Z,25.30
2023-05-01T14:51:46.698Z,25.90
2023-05-01T14:54:15.059Z,26.40
2023-05-01T14:56:48.600Z,27.30
2023-05-01T14:59:16.863Z,27.50
2023-05-01T15:01:45.541Z,27.90
2023-05-01T15:04:14.378Z,28.60
2023-05-01T15:06:42.586Z,29.80
2023-05-01T15:09:10.748Z,30.40
2023-05-01T15:11:38.723Z,30.90
2023-05-01T15:14:08.058Z,30.40
2023-05-01T15:16:36.413Z,30.60
2023-05-01T15:19:06.176Z,31.00
2023-05-01T15:21:34.471Z,31.50
2023-05-01T15:24:02.457Z,31.50
2023-05-01T15:26:30.549Z,31.40
2023-05-01T15:28:58.598Z,31.90
2023-05-01T15:31:27.955Z,32.30
2023-05-01T15:33:56.074Z,32.20
2023-05-01T15:36:24.144Z,31.80
2023-05-01T15:38:53.948Z,31.40
2023-05-01T15:41:22.184Z,31.60
2023-05-01T15:43:50.292Z,31.80
2023-05-01T15:46:19.839Z,32.20
2023-05-01T15:48:49.298Z,32.20
2023-05-01T15:51:17.264Z,31.20
2023-05-01T15:53:45.230Z,30.60
2023-05-01T15:56:13.208Z,30.30
2023-05-01T15:58:41.246Z,30.00
2023-05-01T16:01:09.630Z,30.00
2023-05-01T16:03:41.966Z,29.70
2023-05-01T16:06:11.601Z,28.80
2023-05-01T16:08:39.929Z,28.50
2023-05-01T16:11:09.997Z,27.80
2023-05-01T16:13:39.464Z,28.00
2023-05-01T16:16:09.248Z,27.70
2023-05-01T16:18:39.265Z,27.80
2023-05-01T16:21:07.396Z,27.70
2023-05-01T16:23:37.026Z,27.50
2023-05-01T16:26:05.810Z,26.90
2023-05-01T16:28:35.063Z,26.10
2023-05-01T16:31:08.360Z,25.80
2023-05-01T16:33:41.428Z,25.30
2023-05-01T16:36:09.951Z,25.10
2023-05-01T16:38:39.568Z,24.90
2023-05-01T16:41:08.577Z,24.30
2023-05-01T16:43:36.687Z,24.10
2023-05-01T16:46:04.744Z,23.70
2023-05-01T16:48:35.476Z,23.60
2023-05-01T16:51:05.260Z,23.50
2023-05-01T16:53:33.282Z,23.40
2023-05-01T16:56:02.663Z,23.10
2023-05-01T16:58:30.681Z,22.70
2023-05-01T17:00:59.562Z,22.40
2023-05-01T17:03:27.800Z,22.20
2023-05-01T17:05:58.760Z,22.10
2023-05-01T17:08:27.931Z,21.90
2023-05-01T17:10:56.022Z,21.30
2023-05-01T17:13:27.157Z,21.20
2023-05-01T17:15:55.237Z,21.10
2023-05-01T17:18:23.336Z,21.10
2023-05-01T17:20:52.157Z,21.00
2023-05-01T17:23:20.226Z,20.70
2023-05-01T17:25:48.222Z,20.40
2023-05-01T17:28:16.430Z,20.10
2023-05-01T17:30:45.818Z,19.80
2023-05-01T17:33:16.656Z,19.70
2023-05-01T17:35:44.968Z,19.50
2023-05-01T17:38:13.219Z,19.30
2023-05-01T17:40:41.378Z,19.30
2023-05-01T17:43:10.322Z,19.40
2023-05-01T17:45:38.453Z,19.30
2023-05-01T17:48:08.388Z,19.30
2023-05-01T17:50:36.548Z,19.20
2023-05-01T17:53:04.908Z,19.30
2023-05-01T17:55:35.916Z,19.20
2023-05-01T17:58:07.456Z,19.10
2023-05-01T18:00:35.702Z,19.00
2023-05-01T18:03:04.677Z,18.80
2023-05-01T18:05:34.170Z,18.70
2023-05-01T18:08:02.108Z,18.50
2023-05-01T18:10:31.292Z,18.40
2023-05-01T18:12:59.540Z,18.30
2023-05-01T18:15:27.587Z,18.10
2023-05-01T18:17:55.747Z,18.00
2023-05-01T18:20:23.801Z,18.00
2023-05-01T18:22:54.445Z,17.90
2023-05-01T18:25:22.429Z,17.80
2023-05-01T18:27:50.788Z,17.80
2023-05-01T18:30:18.833Z,17.70
2023-05-01T18:32:48.869Z,17.50
2023-05-01T18:35:18.538Z,17.40
2023-05-01T18:37:46.656Z,17.30
2023-05-01T18:40:16.434Z,17.60
2023-05-01T18:42:44.547Z,17.20
2023-05-01T18:45:12.575Z,17.10
2023-05-01T18:47:40.836Z,17.00
2023-05-01T18:50:09.649Z,17.00
2023-05-01T18:52:37.997Z,17.00
2023-05-01T18:55:06.442Z,16.90
2023-05-01T18:57:36.107Z,16.90
2023-05-01T19:00:04.494Z,16.70
2023-05-01T19:02:32.654Z,16.70
2023-05-01T19:05:00.843Z,16.70
2023-05-01T19:07:29.089Z,16.50
2023-05-01T19:09:57.651Z,17.20
2023-05-01T19:12:26.193Z,16.20
2023-05-01T19:14:55.939Z,16.10
2023-05-01T19:17:24.013Z,16.00
2023-05-01T19:19:52.088Z,15.90
2023-05-01T19:22:20.070Z,15.80
2023-05-01T19:24:48.074Z,15.70
2023-05-01T19:27:17.866Z,15.70
2023-05-01T19:29:45.980Z,15.70
2023-05-01T19:32:16.841Z,15.60
2023-05-01T19:34:44.889Z,15.60
2023-05-01T19:37:12.882Z,15.50
2023-05-01T19:39:40.926Z,15.40
2023-05-01T19:42:08.999Z,15.40
2023-05-01T19:44:37.077Z,15.30
2023-05-01T19:47:08.023Z,15.30
2023-05-01T19:49:38.618Z,15.20
2023-05-01T19:52:10.222Z,15.10
2023-05-01T19:54:38.230Z,15.00
2023-05-01T19:57:06.373Z,15.00
2023-05-01T19:59:38.674Z,15.00
2023-05-01T20:02:07.344Z,14.90
2023-05-01T20:04:36.086Z,14.90
2023-05-01T20:07:05.599Z,14.80
2023-05-01T20:09:33.592Z,14.70
2023-05-01T20:12:01.681Z,14.70
2023-05-01T20:14:31.663Z,14.60
2023-05-01T20:17:00.982Z,14.50
2023-05-01T20:19:29.134Z,14.40
2023-05-01T20:21:57.120Z,14.40
2023-05-01T20:24:26.618Z,14.50
2023-05-01T20:26:55.670Z,14.50
2023-05-01T20:29:23.768Z,14.40
2023-05-01T20:31:52.495Z,14.40
2023-05-01T20:34:21.020Z,14.20
2023-05-01T20:36:49.073Z,14.20
2023-05-01T20:39:17.108Z,14.20
2023-05-01T20:41:46.474Z,14.10
2023-05-01T20:44:14.530Z,14.00
2023-05-01T20:46:43.504Z,14.00
2023-05-01T20:49:13.762Z,13.90
2023-05-01T20:51:43.796Z,13.90
2023-05-01T20:54:11.832Z,13.80
2023-05-01T20:56:39.932Z,13.70
2023-05-01T20:59:09.361Z,13.70
2023-05-01T21:01:37.380Z,13.60
2023-05-01T21:04:06.297Z,13.50
2023-05-01T21:06:34.602Z,13.40
2023-05-01T21:09:03.436Z,13.40
2023-05-01T21:11:31.588Z,13.30
2023-05-01T21:13:59.578Z,13.30
2023-05-01T21:16:29.145Z,13.20
2023-05-01T21:18:57.250Z,13.20
2023-05-01T21:21:26.960Z,13.20
2023-05-01T21:23:55.028Z,13.10
2023-05-01T21:26:22.979Z,13.10
2023-05-01T21:28:50.956Z,13.00
2023-05-01T21:31:19.041Z,13.00
2023-05-01T21:33:48.562Z,13.00
2023-05-01T21:36:18.006Z,13.00
2023-05-01T21:38:46.309Z,12.90
2023-05-01T21:41:15.396Z,12.90
2023-05-01T21:43:43.585Z,12.90
2023-05-01T21:46:11.651Z,12.90
2023-05-01T21:48:39.651Z,12.90
2023-05-01T21:51:09.022Z,12.90
2023-05-01T21:53:36.964Z,12.80
2023-05-01T21:56:05.227Z,12.80
2023-05-01T21:58:33.181Z,12.70
2023-05-01T22:01:01.284Z,12.70
2023-05-01T22:03:29.459Z,12.70
2023-05-01T22:05:58.425Z,12.70
2023-05-01T22:08:28.107Z,12.70
2023-05-01T22:10:56.041Z,12.60
2023-05-01T22:13:24.100Z,12.60
2023-05-01T22:15:52.033Z,12.60
2023-05-01T22:18:20.031Z,12.60
2023-05-01T22:20:48.005Z,12.50
2023-05-01T22:23:15.992Z,12.50
2023-05-01T22:25:45.418Z,12.40
2023-05-01T22:28:14.166Z,12.30
2023-05-01T22:30:44.437Z,12.40
2023-05-01T22:33:12.620Z,12.40
2023-05-01T22:35:40.614Z,12.30
2023-05-01T22:38:08.612Z,12.30
2023-05-01T22:40:36.580Z,12.30
2023-05-01T22:43:06.141Z,12.30
2023-05-01T22:45:34.083Z,12.30
2023-05-01T22:48:02.074Z,12.40
2023-05-01T22:50:30.045Z,12.30
2023-05-01T22:52:57.971Z,12.30
2023-05-01T22:55:25.921Z,12.20
2023-05-01T22:57:53.892Z,12.20
2023-05-01T23:00:23.446Z,12.20
2023-05-01T23:02:51.839Z,12.20
2023-05-01T23:05:19.881Z,12.20
2023-05-01T23:07:47.927Z,12.20
2023-05-01T23:10:15.967Z,12.20
2023-05-01T23:12:45.083Z,12.20
2023-05-01T23:15:16.854Z,12.20
2023-05-01T23:17:46.916Z,12.20
2023-05-01T23:20:19.336Z,12.10
2023-05-01T23:22:47.782Z,12.10
2023-05-01T23:25:18.456Z,12.10
2023-05-01T23:27:49.777Z,12.10
2023-05-01T23:30:20.900Z,12.10
2023-05-01T23:32:50.480Z,12.10
2023-05-01T23:35:23.696Z,12.10
2023-05-01T23:37:52.852Z,12.00
2023-05-01T23:40:20.837Z,12.00
2023-05-01T23:42:49.029Z,12.00
2023-05-01T23:45:17.151Z,11.90
2023-05-01T23:47:45.132Z,11.80
2023-05-01T23:50:14.547Z,11.80
2023-05-01T23:52:42.526Z,11.70
2023-05-01T23:55:10.737Z,11.70
2023-05-01T23:57:38.716Z,11.70
